createdAt,value
2023-01-22T00:01:21.605Z,-0.97
2023-01-22T00:03:49.263Z,-0.96
2023-01-22T00:06:16.070Z,-0.97
2023-01-22T00:08:42.592Z,-0.99
2023-01-22T00:11:09.506Z,-0.99
2023-01-22T00:13:35.964Z,-0.96
2023-01-22T00:16:02.579Z,-0.99
2023-01-22T00:18:29.092Z,-1.01
2023-01-22T00:20:55.662Z,-0.98
2023-01-22T00:23:22.282Z,-0.93
2023-01-22T00:25:48.776Z,-1.02
2023-01-22T00:28:16.766Z,-0.97
2023-01-22T00:30:45.985Z,-0.97
2023-01-22T00:33:12.484Z,-0.97
2023-01-22T00:35:39.586Z,-1.02
2023-01-22T00:38:06.253Z,-0.98
2023-01-22T00:40:33.015Z,-0.99
2023-01-22T00:42:59.480Z,-0.99
2023-01-22T00:45:26.012Z,-0.99
2023-01-22T00:47:52.527Z,-0.95
2023-01-22T00:50:19.534Z,-0.95
2023-01-22T00:52:46.143Z,-0.98
2023-01-22T00:55:12.650Z,-0.93
2023-01-22T00:57:39.122Z,-0.97
2023-01-22T01:00:06.182Z,-0.97
2023-01-22T01:02:32.639Z,-0.99
2023-01-22T01:04:59.390Z,-0.91
2023-01-22T01:07:25.927Z,-0.96
2023-01-22T01:09:52.405Z,-0.91
2023-01-22T01:12:18.872Z,-0.88
2023-01-22T01:14:45.365Z,-0.93
2023-01-22T01:17:11.856Z,-0.91
2023-01-22T01:19:38.383Z,-0.94
2023-01-22T01:22:06.239Z,-0.97
2023-01-22T01:24:32.715Z,-0.89
2023-01-22T01:26:59.186Z,-0.93
2023-01-22T01:29:25.644Z,-0.90
2023-01-22T01:31:54.630Z,-0.87
2023-01-22T01:34:21.158Z,-0.89
2023-01-22T01:36:49.622Z,-0.86
2023-01-22T01:39:16.623Z,-0.86
2023-01-22T01:41:43.148Z,-0.91
2023-01-22T01:44:13.864Z,-0.87
2023-01-22T01:46:48.534Z,-0.85
2023-01-22T01:49:36.595Z,-0.80
2023-01-22T01:52:06.487Z,-0.86
2023-01-22T01:54:32.980Z,-0.88
2023-01-22T01:57:06.123Z,-0.85
2023-01-22T01:59:33.606Z,-0.82
2023-01-22T02:02:00.239Z,-0.86
2023-01-22T02:04:26.719Z,-0.88
2023-01-22T02:06:53.248Z,-0.86
2023-01-22T02:09:19.709Z,-0.77
2023-01-22T02:11:46.189Z,-0.82
2023-01-22T02:14:18.539Z,-0.82
2023-01-22T02:16:45.003Z,-0.81
2023-01-22T02:19:11.467Z,-0.82
2023-01-22T02:21:39.079Z,-0.87
2023-01-22T02:24:07.616Z,-0.81
2023-01-22T02:26:34.336Z,-0.82
2023-01-22T02:29:00.770Z,-0.78
2023-01-22T02:31:27.235Z,-0.74
2023-01-22T02:33:53.795Z,-0.76
2023-01-22T02:36:21.261Z,-0.77
2023-01-22T02:38:47.686Z,-0.79
2023-01-22T02:41:15.073Z,-0.81
2023-01-22T02:43:42.497Z,-0.73
2023-01-22T02:46:09.015Z,-0.78
2023-01-22T02:48:35.704Z,-0.76
2023-01-22T02:51:02.198Z,-0.74
2023-01-22T02:53:28.646Z,-0.75
2023-01-22T02:55:55.118Z,-0.76
2023-01-22T02:58:21.561Z,-0.71
2023-01-22T03:00:47.992Z,-0.72
2023-01-22T03:03:18.113Z,-0.76
2023-01-22T03:05:46.979Z,-0.80
2023-01-22T03:08:13.419Z,-0.80
2023-01-22T03:10:39.858Z,-0.79
2023-01-22T03:13:25.004Z,-0.79
2023-01-22T03:16:10.024Z,-0.77
2023-01-22T03:18:55.116Z,-0.70
2023-01-22T03:21:22.395Z,-0.73
2023-01-22T03:23:53.213Z,-0.76
2023-01-22T03:26:20.481Z,-0.73
2023-01-22T03:28:46.958Z,-0.73
2023-01-22T03:31:13.703Z,-0.76
2023-01-22T03:33:40.458Z,-0.71
2023-01-22T03:36:09.329Z,-0.77
2023-01-22T03:38:35.835Z,-0.77
2023-01-22T03:41:12.167Z,-0.71
2023-01-22T03:43:38.835Z,-0.63
2023-01-22T03:46:23.390Z,-0.67
2023-01-22T03:48:50.749Z,-0.78
2023-01-22T03:51:17.241Z,-0.71
2023-01-22T03:53:43.946Z,-0.74
2023-01-22T03:56:15.754Z,-0.72
2023-01-22T03:58:42.378Z,-0.70
2023-01-22T04:01:12.814Z,-0.71
2023-01-22T04:03:39.263Z,-0.67
2023-01-22T04:06:06.378Z,-0.73
2023-01-22T04:08:33.620Z,-0.72
2023-01-22T04:11:00.496Z,-0.70
2023-01-22T04:13:27.812Z,-0.67
2023-01-22T04:15:54.279Z,-0.73
2023-01-22T04:18:20.738Z,-0.66
2023-01-22T04:20:50.471Z,-0.72
2023-01-22T04:23:17.028Z,-0.66
2023-01-22T04:25:44.001Z,-0.74
2023-01-22T04:28:14.495Z,-0.70
2023-01-22T04:30:41.459Z,-0.67
2023-01-22T04:33:08.230Z,-0.77
2023-01-22T04:35:35.022Z,-0.78
2023-01-22T04:38:01.696Z,-0.76
2023-01-22T04:40:28.217Z,-0.74
2023-01-22T04:42:54.639Z,-0.68
2023-01-22T04:45:21.142Z,-0.65
2023-01-22T04:47:48.189Z,-0.72
2023-01-22T04:50:19.222Z,-0.72
2023-01-22T04:52:45.936Z,-0.69
2023-01-22T04:55:12.696Z,-0.73
2023-01-22T04:57:39.129Z,-0.74
2023-01-22T05:00:06.152Z,-0.72
2023-01-22T05:02:32.673Z,-0.70
2023-01-22T05:04:59.140Z,-0.74
2023-01-22T05:07:25.566Z,-0.66
2023-01-22T05:09:51.990Z,-0.70
2023-01-22T05:12:19.005Z,-0.70
2023-01-22T05:14:45.442Z,-0.73
2023-01-22T05:17:11.885Z,-0.74
2023-01-22T05:19:38.324Z,-0.73
2023-01-22T05:22:04.846Z,-0.75
2023-01-22T05:24:31.278Z,-0.69
2023-01-22T05:26:57.702Z,-0.76
2023-01-22T05:29:26.010Z,-0.71
2023-01-22T05:31:56.363Z,-0.66
2023-01-22T05:34:23.149Z,-0.69
2023-01-22T05:36:49.697Z,-0.67
2023-01-22T05:39:16.636Z,-0.74
2023-01-22T05:41:43.201Z,-0.75
2023-01-22T05:44:10.636Z,-0.73
2023-01-22T05:46:37.080Z,-0.76
2023-01-22T05:49:03.626Z,-0.75
2023-01-22T05:51:32.281Z,-0.75
2023-01-22T05:53:58.889Z,-0.79
2023-01-22T05:56:25.345Z,-0.80
2023-01-22T05:58:51.768Z,-0.74
2023-01-22T06:01:18.273Z,-0.73
2023-01-22T06:03:44.797Z,-0.76
2023-01-22T06:06:12.082Z,-0.80
2023-01-22T06:08:38.514Z,-0.74
2023-01-22T06:11:06.480Z,-0.78
2023-01-22T06:13:33.125Z,-0.79
2023-01-22T06:16:00.195Z,-0.78
2023-01-22T06:18:26.732Z,-0.78
2023-01-22T06:20:53.197Z,-0.74
2023-01-22T06:23:19.655Z,-0.71
2023-01-22T06:25:51.944Z,-0.74
2023-01-22T06:28:18.373Z,-0.72
2023-01-22T06:30:45.081Z,-0.75
2023-01-22T06:33:11.563Z,-0.73
2023-01-22T06:35:38.005Z,-0.73
2023-01-22T06:38:04.656Z,-0.71
2023-01-22T06:40:31.101Z,-0.75
2023-01-22T06:43:00.129Z,-0.72
2023-01-22T06:45:26.564Z,-0.72
2023-01-22T06:47:53.004Z,-0.73
2023-01-22T06:50:19.683Z,-0.74
2023-01-22T06:52:46.390Z,-0.69
2023-01-22T06:55:12.883Z,-0.65
2023-01-22T06:57:39.366Z,-0.63
2023-01-22T07:00:06.594Z,-0.68
2023-01-22T07:02:33.150Z,-0.64
2023-01-22T07:04:59.619Z,-0.58
2023-01-22T07:07:26.098Z,-0.67
2023-01-22T07:09:52.565Z,-0.60
2023-01-22T07:12:19.037Z,-0.63
2023-01-22T07:14:45.501Z,-0.63
2023-01-22T07:17:11.960Z,-0.60
2023-01-22T07:19:38.485Z,-0.49
2023-01-22T07:22:04.962Z,-0.46
2023-01-22T07:24:31.429Z,-0.49
2023-01-22T07:26:57.905Z,-0.51
2023-01-22T07:29:24.378Z,-0.46
2023-01-22T07:31:50.883Z,-0.51
2023-01-22T07:34:17.390Z,-0.54
2023-01-22T07:36:44.134Z,-0.55
2023-01-22T07:39:10.608Z,-0.54
2023-01-22T07:41:37.085Z,-0.51
2023-01-22T07:44:03.746Z,-0.48
2023-01-22T07:46:30.274Z,-0.41
2023-01-22T07:48:56.750Z,-0.43
2023-01-22T07:51:23.325Z,-0.35
2023-01-22T07:53:49.879Z,-0.47
2023-01-22T07:56:17.986Z,-0.32
2023-01-22T07:58:45.164Z,-0.31
2023-01-22T08:01:11.806Z,-0.33
2023-01-22T08:03:38.668Z,-0.21
2023-01-22T08:06:12.185Z,-0.25
2023-01-22T08:08:38.744Z,-0.24
2023-01-22T08:11:05.217Z,-0.24
2023-01-22T08:13:31.728Z,-0.16
2023-01-22T08:15:58.215Z,-0.08
2023-01-22T08:18:24.697Z,-0.10
2023-01-22T08:20:51.344Z,-0.14
2023-01-22T08:23:17.830Z,-0.07
2023-01-22T08:25:44.311Z,-0.05
2023-01-22T08:28:10.842Z,-0.03
2023-01-22T08:30:45.469Z,-0.04
2023-01-22T08:33:12.460Z,-0.05
2023-01-22T08:35:39.120Z,0.01
2023-01-22T08:38:05.611Z,0.07
2023-01-22T08:40:32.089Z,0.05
2023-01-22T08:42:58.559Z,0.12
2023-01-22T08:45:25.095Z,0.06
2023-01-22T08:47:56.163Z,0.13
2023-01-22T08:50:22.630Z,0.10
2023-01-22T08:52:49.160Z,0.18
2023-01-22T08:55:15.681Z,0.14
2023-01-22T08:57:42.154Z,0.14
2023-01-22T09:00:09.944Z,0.19
2023-01-22T09:02:36.421Z,0.24
2023-01-22T09:05:02.883Z,0.20
2023-01-22T09:07:29.421Z,0.16
2023-01-22T09:09:55.885Z,0.21
2023-01-22T09:12:22.387Z,0.25
2023-01-22T09:14:48.868Z,0.26
2023-01-22T09:17:15.329Z,0.34
2023-01-22T09:19:41.795Z,0.21
2023-01-22T09:22:08.260Z,0.11
2023-01-22T09:24:34.753Z,0.17
2023-01-22T09:27:01.268Z,0.21
2023-01-22T09:29:27.732Z,0.18
2023-01-22T09:31:54.255Z,0.24
2023-01-22T09:34:20.753Z,0.17
2023-01-22T09:36:47.229Z,0.19
2023-01-22T09:39:13.713Z,0.14
2023-01-22T09:41:41.242Z,0.20
2023-01-22T09:44:18.142Z,0.12
2023-01-22T09:46:49.877Z,0.20
2023-01-22T09:49:18.388Z,0.22
2023-01-22T09:51:47.061Z,0.33
2023-01-22T09:54:15.526Z,0.37
2023-01-22T09:56:43.798Z,0.55
2023-01-22T09:59:16.891Z,0.57
2023-01-22T10:01:45.921Z,0.41
2023-01-22T10:04:40.756Z,0.34
2023-01-22T10:07:21.458Z,0.33
2023-01-22T10:09:52.391Z,0.33
2023-01-22T10:12:18.891Z,0.25
2023-01-22T10:14:45.361Z,0.42
2023-01-22T10:17:25.862Z,0.30
2023-01-22T10:19:54.726Z,0.37
2023-01-22T10:22:23.313Z,0.41
2023-01-22T10:24:50.071Z,0.36
2023-01-22T10:27:18.900Z,0.31
2023-01-22T10:29:55.267Z,0.28
2023-01-22T10:32:24.176Z,0.19
2023-01-22T10:35:10.514Z,0.15
2023-01-22T10:37:45.229Z,0.11
2023-01-22T10:40:35.814Z,0.10
2023-01-22T10:43:03.422Z,0.13
2023-01-22T10:45:29.964Z,0.14
2023-01-22T10:48:13.506Z,0.23
2023-01-22T10:50:40.508Z,0.21
2023-01-22T10:53:15.075Z,0.22
2023-01-22T10:55:41.574Z,0.15
2023-01-22T10:58:14.663Z,0.15
2023-01-22T11:00:51.546Z,0.21
2023-01-22T11:03:24.308Z,0.22
2023-01-22T11:05:57.856Z,0.21
2023-01-22T11:08:27.159Z,0.18
2023-01-22T11:11:04.599Z,0.17
2023-01-22T11:13:56.270Z,0.29
2023-01-22T11:16:24.236Z,0.23
2023-01-22T11:19:05.282Z,0.20
2023-01-22T11:21:34.840Z,0.25
2023-01-22T11:24:12.895Z,0.28
2023-01-22T11:27:18.397Z,0.40
2023-01-22T11:30:03.004Z,0.28
2023-01-22T11:32:32.432Z,0.34
2023-01-22T11:35:10.520Z,0.37
2023-01-22T11:37:53.819Z,0.36
2023-01-22T11:40:28.352Z,0.35
2023-01-22T11:43:18.724Z,0.49
2023-01-22T11:46:11.596Z,0.44
2023-01-22T11:48:48.879Z,0.44
2023-01-22T11:51:35.641Z,0.36
2023-01-22T11:54:39.697Z,0.29
2023-01-22T11:57:21.979Z,0.31
2023-01-22T11:59:57.468Z,0.39
2023-01-22T12:02:51.507Z,0.33
2023-01-22T12:05:42.751Z,0.35
2023-01-22T12:08:14.825Z,0.28
2023-01-22T12:10:47.119Z,0.31
2023-01-22T12:13:45.215Z,0.35
2023-01-22T12:16:23.912Z,0.43
2023-01-22T12:19:20.556Z,0.41
2023-01-22T12:22:09.291Z,0.53
2023-01-22T12:24:39.756Z,0.51
2023-01-22T12:27:26.800Z,0.60
2023-01-22T12:29:59.959Z,0.67
2023-01-22T12:32:27.690Z,0.68
2023-01-22T12:34:58.533Z,0.54
2023-01-22T12:37:28.083Z,0.45
2023-01-22T12:40:05.537Z,0.51
2023-01-22T12:42:41.015Z,0.50
2023-01-22T12:45:19.596Z,0.50
2023-01-22T12:47:45.904Z,0.56
2023-01-22T12:50:20.306Z,0.55
2023-01-22T12:52:57.692Z,0.48
2023-01-22T12:55:31.114Z,0.54
2023-01-22T12:57:57.658Z,0.54
2023-01-22T13:00:38.966Z,0.41
2023-01-22T13:03:30.979Z,0.53
2023-01-22T13:05:58.207Z,0.65
2023-01-22T13:08:36.339Z,0.50
2023-01-22T13:11:10.125Z,0.52
2023-01-22T13:13:48.654Z,0.44
2023-01-22T13:16:15.011Z,0.56
2023-01-22T13:18:44.553Z,0.49
2023-01-22T13:21:12.046Z,0.42
2023-01-22T13:23:41.545Z,0.40
2023-01-22T13:26:14.128Z,0.48
2023-01-22T13:28:42.002Z,0.47
2023-01-22T13:31:15.346Z,0.50
2023-01-22T13:33:57.865Z,0.44
2023-01-22T13:36:24.743Z,0.53
2023-01-22T13:38:52.857Z,0.64
2023-01-22T13:41:26.728Z,0.57
2023-01-22T13:43:53.197Z,0.46
2023-01-22T13:46:19.710Z,0.56
2023-01-22T13:48:46.194Z,0.44
2023-01-22T13:51:17.472Z,0.46
2023-01-22T13:53:45.904Z,0.38
2023-01-22T13:56:19.615Z,0.45
2023-01-22T13:58:48.569Z,0.34
2023-01-22T14:01:34.027Z,0.24
2023-01-22T14:04:02.223Z,0.21
2023-01-22T14:06:28.899Z,0.17
2023-01-22T14:08:57.200Z,0.19
2023-01-22T14:11:23.971Z,0.19
2023-01-22T14:13:51.715Z,0.31
2023-01-22T14:16:18.301Z,0.30
2023-01-22T14:18:47.692Z,0.25
2023-01-22T14:21:14.467Z,0.28
2023-01-22T14:23:42.649Z,0.24
2023-01-22T14:26:09.498Z,0.34
2023-01-22T14:28:36.097Z,0.41
2023-01-22T14:31:02.667Z,0.20
2023-01-22T14:33:30.672Z,0.27
2023-01-22T14:35:57.172Z,0.30
2023-01-22T14:38:24.181Z,0.21
2023-01-22T14:40:50.695Z,0.18
2023-01-22T14:43:17.166Z,0.15
2023-01-22T14:45:44.676Z,0.12
2023-01-22T14:48:15.192Z,0.02
2023-01-22T14:50:41.694Z,0.08
2023-01-22T14:53:08.361Z,0.13
2023-01-22T14:55:34.910Z,0.08
2023-01-22T14:58:02.022Z,0.07
2023-01-22T15:00:29.381Z,0.01
2023-01-22T15:02:56.409Z,0.19
2023-01-22T15:05:22.957Z,-0.03
2023-01-22T15:07:49.710Z,0.00
2023-01-22T15:10:16.572Z,-0.02
2023-01-22T15:12:48.103Z,-0.04
2023-01-22T15:15:20.035Z,-0.07
2023-01-22T15:17:46.529Z,-0.12
2023-01-22T15:20:13.197Z,-0.09
2023-01-22T15:22:39.684Z,-0.12
2023-01-22T15:25:06.758Z,0.02
2023-01-22T15:27:33.535Z,-0.02
2023-01-22T15:30:00.143Z,0.08
2023-01-22T15:32:26.713Z,-0.02
2023-01-22T15:34:53.191Z,-0.06
2023-01-22T15:37:19.683Z,-0.04
2023-01-22T15:39:46.231Z,0.09
2023-01-22T15:42:12.709Z,0.00
2023-01-22T15:44:39.178Z,0.05
2023-01-22T15:47:06.346Z,-0.07
2023-01-22T15:49:33.185Z,-0.08
2023-01-22T15:51:59.679Z,-0.11
2023-01-22T15:54:26.928Z,0.00
2023-01-22T15:56:53.444Z,-0.01
2023-01-22T15:59:19.941Z,0.04
2023-01-22T16:01:46.820Z,0.00
2023-01-22T16:04:13.307Z,-0.04
2023-01-22T16:06:39.869Z,-0.05
2023-01-22T16:09:07.556Z,-0.01
2023-01-22T16:11:34.252Z,-0.05
2023-01-22T16:14:00.801Z,-0.05
2023-01-22T16:16:30.236Z,-0.08
2023-01-22T16:18:57.410Z,-0.07
2023-01-22T16:21:23.925Z,-0.07
2023-01-22T16:24:00.664Z,-0.01
2023-01-22T16:26:28.898Z,-0.03
2023-01-22T16:28:55.979Z,-0.08
2023-01-22T16:31:24.415Z,-0.10
2023-01-22T16:33:55.878Z,0.00
2023-01-22T16:36:23.302Z,-0.09
2023-01-22T16:38:49.800Z,-0.06
2023-01-22T16:41:26.541Z,-0.09
2023-01-22T16:43:57.169Z,-0.12
2023-01-22T16:46:24.680Z,-0.01
2023-01-22T16:49:21.170Z,0.07
2023-01-22T16:51:52.626Z,0.09
2023-01-22T16:54:27.847Z,0.02
2023-01-22T16:56:55.168Z,-0.01
2023-01-22T16:59:21.767Z,-0.03
2023-01-22T17:01:48.290Z,0.00
2023-01-22T17:04:14.869Z,-0.07
2023-01-22T17:06:46.229Z,-0.03
2023-01-22T17:09:17.339Z,-0.07
2023-01-22T17:11:46.235Z,-0.03
2023-01-22T17:14:13.448Z,0.02
2023-01-22T17:16:39.941Z,-0.04
2023-01-22T17:19:06.449Z,-0.04
2023-01-22T17:21:32.951Z,0.02
2023-01-22T17:23:59.522Z,0.11
2023-01-22T17:26:26.031Z,0.03
2023-01-22T17:28:53.268Z,-0.07
2023-01-22T17:31:21.933Z,0.08
2023-01-22T17:33:48.849Z,0.04
2023-01-22T17:36:16.186Z,0.00
2023-01-22T17:38:42.837Z,-0.01
2023-01-22T17:41:10.221Z,-0.05
2023-01-22T17:43:36.828Z,-0.01
2023-01-22T17:46:07.320Z,-0.02
2023-01-22T17:48:35.650Z,0.08
2023-01-22T17:51:06.759Z,0.08
2023-01-22T17:53:35.470Z,0.06
2023-01-22T17:56:09.519Z,0.04
2023-01-22T17:58:36.192Z,0.12
2023-01-22T18:01:07.225Z,0.07
2023-01-22T18:03:35.612Z,0.03
2023-01-22T18:06:02.217Z,-0.02
2023-01-22T18:08:29.681Z,0.07
2023-01-22T18:10:56.675Z,0.11
2023-01-22T18:13:23.184Z,0.10
2023-01-22T18:15:49.824Z,0.20
2023-01-22T18:18:16.370Z,0.10
2023-01-22T18:20:46.064Z,0.12
2023-01-22T18:23:13.178Z,0.13
2023-01-22T18:25:46.636Z,0.08
2023-01-22T18:28:14.936Z,0.09
2023-01-22T18:30:41.501Z,0.13
2023-01-22T18:33:09.444Z,0.10
2023-01-22T18:35:36.563Z,0.14
2023-01-22T18:38:03.050Z,0.16
2023-01-22T18:40:30.832Z,0.14
2023-01-22T18:42:57.497Z,0.12
2023-01-22T18:45:24.591Z,0.10
2023-01-22T18:47:54.092Z,0.07
2023-01-22T18:50:23.644Z,0.09
2023-01-22T18:52:50.142Z,0.12
2023-01-22T18:55:17.088Z,0.13
2023-01-22T18:57:46.312Z,0.04
2023-01-22T19:00:13.692Z,0.10
2023-01-22T19:02:40.590Z,0.07
2023-01-22T19:05:07.376Z,0.21
2023-01-22T19:07:38.066Z,0.24
2023-01-22T19:10:06.520Z,0.19
2023-01-22T19:12:33.330Z,0.11
2023-01-22T19:14:59.877Z,0.17
2023-01-22T19:17:26.625Z,0.17
2023-01-22T19:19:53.088Z,0.17
2023-01-22T19:22:19.641Z,0.08
2023-01-22T19:24:46.120Z,0.20
2023-01-22T19:27:12.633Z,0.12
2023-01-22T19:29:39.662Z,0.14
2023-01-22T19:32:06.471Z,0.13
2023-01-22T19:34:33.015Z,0.15
2023-01-22T19:37:02.234Z,0.07
2023-01-22T19:39:28.819Z,0.10
2023-01-22T19:41:55.361Z,0.21
2023-01-22T19:44:21.894Z,0.21
2023-01-22T19:46:48.500Z,0.08
2023-01-22T19:49:15.085Z,0.05
2023-01-22T19:51:41.756Z,0.18
2023-01-22T19:54:08.800Z,0.20
2023-01-22T19:56:36.438Z,0.20
2023-01-22T19:59:08.394Z,0.17
2023-01-22T20:01:35.173Z,0.11
2023-01-22T20:04:01.784Z,0.20
2023-01-22T20:06:28.352Z,0.18
2023-01-22T20:08:55.501Z,0.14
2023-01-22T20:11:21.986Z,0.20
2023-01-22T20:13:48.892Z,0.20
2023-01-22T20:16:21.119Z,0.20
2023-01-22T20:18:47.943Z,0.11
2023-01-22T20:21:15.452Z,0.17
2023-01-22T20:23:42.047Z,0.05
2023-01-22T20:26:08.977Z,0.07
2023-01-22T20:28:35.839Z,0.08
2023-01-22T20:31:04.316Z,0.14
2023-01-22T20:33:30.980Z,0.16
2023-01-22T20:35:58.427Z,0.08
2023-01-22T20:38:24.899Z,0.10
2023-01-22T20:40:51.425Z,0.10
2023-01-22T20:43:19.005Z,0.10
2023-01-22T20:45:45.552Z,0.09
2023-01-22T20:48:12.050Z,0.09
2023-01-22T20:50:41.938Z,0.07
2023-01-22T20:53:08.503Z,0.12
2023-01-22T20:55:35.208Z,0.11
2023-01-22T20:58:01.769Z,0.19
2023-01-22T21:00:28.235Z,0.23
2023-01-22T21:02:54.727Z,0.18
2023-01-22T21:05:21.303Z,0.17
2023-01-22T21:07:47.851Z,0.23
2023-01-22T21:10:14.595Z,0.20
2023-01-22T21:12:41.693Z,0.31
2023-01-22T21:15:08.699Z,0.21
2023-01-22T21:17:35.839Z,0.16
2023-01-22T21:20:02.772Z,0.20
2023-01-22T21:22:29.728Z,0.18
2023-01-22T21:24:56.189Z,0.13
2023-01-22T21:27:22.699Z,0.12
2023-01-22T21:29:50.330Z,0.11
2023-01-22T21:32:16.936Z,0.13
2023-01-22T21:34:43.410Z,0.18
2023-01-22T21:37:09.909Z,0.11
2023-01-22T21:39:38.506Z,0.21
2023-01-22T21:42:23.431Z,0.13
2023-01-22T21:45:08.545Z,0.19
2023-01-22T21:47:35.085Z,0.09
2023-01-22T21:50:01.557Z,0.07
2023-01-22T21:52:28.080Z,0.02
2023-01-22T21:54:54.540Z,0.13
2023-01-22T21:57:21.043Z,0.12
2023-01-22T21:59:47.549Z,0.12
2023-01-22T22:02:15.281Z,0.07
2023-01-22T22:04:41.776Z,0.17
2023-01-22T22:07:08.265Z,0.07
2023-01-22T22:09:34.750Z,0.16
2023-01-22T22:12:01.413Z,0.19
2023-01-22T22:14:27.914Z,0.13
2023-01-22T22:16:54.565Z,0.06
2023-01-22T22:19:21.260Z,0.07
2023-01-22T22:21:47.729Z,0.00
2023-01-22T22:24:14.344Z,0.05
2023-01-22T22:26:40.857Z,0.07
2023-01-22T22:29:07.620Z,0.05
2023-01-22T22:31:34.137Z,0.09
2023-01-22T22:34:00.665Z,0.17
2023-01-22T22:36:28.061Z,0.06
2023-01-22T22:38:54.935Z,0.11
2023-01-22T22:41:23.402Z,0.17
2023-01-22T22:43:52.117Z,0.12
2023-01-22T22:46:23.212Z,0.06
2023-01-22T22:48:49.777Z,0.03
2023-01-22T22:51:23.202Z,0.06
2023-01-22T22:53:52.000Z,0.01
2023-01-22T22:56:18.565Z,0.03
2023-01-22T22:58:45.038Z,-0.04
2023-01-22T23:01:13.328Z,0.06
2023-01-22T23:03:40.170Z,0.01
2023-01-22T23:06:10.249Z,0.18
2023-01-22T23:08:37.010Z,0.08
2023-01-22T23:11:08.217Z,0.10
2023-01-22T23:13:34.948Z,0.07
2023-01-22T23:16:02.350Z,0.03
2023-01-22T23:18:30.086Z,0.01
2023-01-22T23:20:56.559Z,0.06
2023-01-22T23:23:23.074Z,0.00
2023-01-22T23:25:49.565Z,-0.01
2023-01-22T23:28:16.088Z,0.03
2023-01-22T23:30:42.719Z,0.09
2023-01-22T23:33:09.271Z,0.05
2023-01-22T23:35:35.727Z,0.20
2023-01-22T23:38:02.213Z,0.06
2023-01-22T23:40:28.743Z,0.07
2023-01-22T23:42:55.386Z,0.10
2023-01-22T23:45:21.902Z,0.10
2023-01-22T23:47:48.453Z,0.05
2023-01-22T23:50:15.205Z,0.04
2023-01-22T23:52:42.769Z,0.17
2023-01-22T23:55:10.473Z,0.10
2023-01-22T23:57:37.006Z,0.17
